Time;durP1;ratioP1;P1;durP2;ratioP2;P2;SDS_P1;SDS_P2;PMS_P1;PMS_P2;Temp;Humidity;BMP_temperature;BMP_pressure;BME280_temperature;BME280_humidity;BME280_pressure;Samples;Min_cycle;Max_cycle;Signal;HPM_P1;HPM_P2
2024/04/08 00:01:21;;;;;;;0.20;0.20;;;;;;;16.81;61.45;101198.13;5379592;26;20015;-84
2024/04/08 00:03:47;;;;;;;0.57;0.57;;;;;;;16.80;61.24;101187.50;5371671;26;19996;-83
2024/04/08 00:06:14;;;;;;;0.00;0.00;;;;;;;16.77;61.74;101184.94;5379993;26;19996;-81
2024/04/08 00:08:40;;;;;;;0.10;0.10;;;;;;;16.75;61.89;101193.03;5377162;26;20008;-81
2024/04/08 00:11:07;;;;;;;0.10;0.10;;;;;;;16.75;61.80;101201.06;5372631;26;20012;-85
2024/04/08 00:13:37;;;;;;;0.05;0.05;;;;;;;16.76;61.76;101201.91;5369049;26;20007;-83
2024/04/08 00:16:07;;;;;;;0.00;0.00;;;;;;;16.76;61.77;101208.16;5376939;26;20004;-84
2024/04/08 00:18:33;;;;;;;0.10;0.10;;;;;;;16.73;62.42;101200.22;5368158;26;20004;-84
2024/04/08 00:21:02;;;;;;;0.28;0.20;;;;;;;16.75;61.77;101189.50;5373630;26;20037;-84
2024/04/08 00:23:28;;;;;;;0.10;0.10;;;;;;;16.70;61.64;101170.94;5377773;26;20070;-83
2024/04/08 00:25:55;;;;;;;0.10;0.10;;;;;;;16.69;61.42;101179.91;5365931;26;20003;-84
2024/04/08 00:28:21;;;;;;;1.27;0.77;;;;;;;16.66;62.05;101177.34;5366573;26;20033;-84
2024/04/08 00:30:47;;;;;;;0.30;0.30;;;;;;;16.64;61.96;101173.88;5376139;26;20007;-84
2024/04/08 00:33:14;;;;;;;0.03;0.03;;;;;;;16.63;62.12;101174.78;5380149;26;20000;-84
2024/04/08 00:35:40;;;;;;;0.10;0.10;;;;;;;16.63;62.19;101169.44;5370563;26;20025;-84
2024/04/08 00:38:06;;;;;;;0.10;0.10;;;;;;;16.61;62.31;101180.22;5381917;26;19996;-83
2024/04/08 00:40:37;;;;;;;0.08;0.08;;;;;;;16.66;62.57;101185.38;5370817;26;20012;-83
2024/04/08 00:43:07;;;;;;;0.10;0.10;;;;;;;16.63;62.50;101185.50;5376845;26;20007;-84
2024/04/08 00:45:35;;;;;;;0.10;0.10;;;;;;;16.63;62.45;101182.81;5371687;26;20012;-82
2024/04/08 00:48:03;;;;;;;0.10;0.10;;;;;;;16.61;62.63;101182.88;5374093;26;20011;-82
2024/04/08 00:50:30;;;;;;;0.00;0.00;;;;;;;16.60;62.71;101180.28;5376290;26;20325;-83
2024/04/08 00:52:56;;;;;;;1.85;1.75;;;;;;;16.59;63.11;101178.53;5369141;26;20004;-84
2024/04/08 00:55:23;;;;;;;0.10;0.10;;;;;;;16.57;62.99;101170.53;5369822;26;20008;-83
2024/04/08 00:57:50;;;;;;;0.32;0.32;;;;;;;16.57;61.85;101172.38;5377880;26;20324;-83
2024/04/08 01:00:17;;;;;;;0.05;0.05;;;;;;;16.54;62.43;101169.81;5373181;26;20019;-82
2024/04/08 01:02:43;;;;;;;0.00;0.00;;;;;;;16.52;62.53;101167.19;5381065;26;20012;-83
2024/04/08 01:05:13;;;;;;;0.10;0.10;;;;;;;16.52;62.75;101152.94;5369742;26;20019;-83
2024/04/08 01:07:41;;;;;;;0.00;0.00;;;;;;;16.54;62.68;101159.13;5375316;26;20015;-83
2024/04/08 01:10:09;;;;;;;0.00;0.00;;;;;;;16.54;62.58;101170.69;5370739;26;20326;-83
2024/04/08 01:12:35;;;;;;;0.00;0.00;;;;;;;16.55;62.88;101166.19;5377115;26;20012;-83
2024/04/08 01:15:02;;;;;;;0.03;0.03;;;;;;;16.54;63.04;101164.47;5375654;26;20012;-82
2024/04/08 01:17:28;;;;;;;0.00;0.00;;;;;;;16.55;62.85;101168.88;5385189;26;20104;-82
2024/04/08 01:19:55;;;;;;;0.10;0.10;;;;;;;16.54;62.76;101169.81;5374676;26;20010;-82
2024/04/08 01:22:21;;;;;;;0.00;0.00;;;;;;;16.52;62.85;101172.53;5373535;26;19996;-84
2024/04/08 01:24:47;;;;;;;0.00;0.00;;;;;;;16.52;62.86;101169.00;5367103;26;20513;-82
2024/04/08 01:27:13;;;;;;;0.03;0.03;;;;;;;16.53;63.34;101170.75;5372904;26;20341;-84
2024/04/08 01:29:40;;;;;;;0.77;0.77;;;;;;;16.54;63.09;101169.81;5380699;26;19996;-83
2024/04/08 01:32:06;;;;;;;0.05;0.05;;;;;;;16.56;63.74;101170.63;5387204;26;20008;-83
2024/04/08 01:34:32;;;;;;;0.00;0.00;;;;;;;16.55;63.80;101171.53;5381433;26;20008;-84
2024/04/08 01:36:58;;;;;;;0.00;0.00;;;;;;;16.54;64.06;101169.81;5381445;26;19996;-83
2024/04/08 01:39:24;;;;;;;0.00;0.00;;;;;;;16.54;63.93;101159.13;5378018;26;19997;-83
2024/04/08 01:41:50;;;;;;;0.10;0.10;;;;;;;16.54;63.87;101148.44;5382162;26;20077;-83
2024/04/08 01:44:17;;;;;;;0.00;0.00;;;;;;;16.54;63.93;101137.72;5375245;26;20001;-83
2024/04/08 01:46:43;;;;;;;0.10;0.10;;;;;;;16.50;64.02;101135.16;5381468;26;20012;-84
2024/04/08 01:49:09;;;;;;;0.00;0.00;;;;;;;16.46;63.25;101120.19;5381267;26;20011;-82
2024/04/08 01:51:35;;;;;;;0.30;0.30;;;;;;;16.42;63.39;101123.88;5382084;26;20524;-83
2024/04/08 01:54:01;;;;;;;0.00;0.00;;;;;;;16.38;63.88;101135.66;5372999;26;20015;-83
2024/04/08 01:56:27;;;;;;;0.00;0.00;;;;;;;16.36;64.22;101140.19;5368076;26;20446;-83
2024/04/08 01:58:55;;;;;;;0.10;0.10;;;;;;;16.34;64.14;101134.03;5381413;26;19996;-84
2024/04/08 02:01:21;;;;;;;0.00;0.00;;;;;;;16.33;64.13;101134.97;5377892;26;20036;-83
2024/04/08 02:03:47;;;;;;;0.20;0.20;;;;;;;16.30;64.06;101135.09;5376791;26;20095;-82
2024/04/08 02:06:13;;;;;;;0.10;0.10;;;;;;;16.29;64.04;101134.22;5381356;26;20342;-83
2024/04/08 02:08:40;;;;;;;0.10;0.10;;;;;;;16.28;64.24;101134.28;5374172;26;20011;-83
2024/04/08 02:11:06;;;;;;;0.10;0.10;;;;;;;16.24;64.46;101128.19;5390864;26;20073;-82
2024/04/08 02:13:32;;;;;;;0.00;0.00;;;;;;;16.20;64.62;101129.25;5389108;26;20004;-83
2024/04/08 02:15:58;;;;;;;0.10;0.10;;;;;;;16.14;65.21;101125.00;5382250;26;20011;-83
2024/04/08 02:18:25;;;;;;;0.10;0.10;;;;;;;16.10;64.55;101131.41;5380528;26;20004;-83
2024/04/08 02:20:51;;;;;;;0.00;0.00;;;;;;;16.05;64.59;101124.47;5380946;26;20352;-83
2024/04/08 02:23:17;;;;;;;0.00;0.00;;;;;;;15.98;64.99;101115.81;5375678;26;20000;-83
2024/04/08 02:25:43;;;;;;;0.00;0.00;;;;;;;15.93;64.80;101129.34;5377991;26;20463;-83
2024/04/08 02:28:10;;;;;;;0.05;0.05;;;;;;;15.88;64.57;101120.66;5368272;26;21636;-83
2024/04/08 02:30:36;;;;;;;1.00;0.38;;;;;;;15.85;65.25;101118.97;5378753;26;20072;-82
2024/04/08 02:33:04;;;;;;;0.10;0.10;;;;;;;15.85;65.56;101118.09;5378078;26;20356;-84
2024/04/08 02:35:34;;;;;;;0.10;0.10;;;;;;;15.89;65.73;101113.47;5376034;26;20023;-81
2024/04/08 02:38:03;;;;;;;0.17;0.17;;;;;;;15.88;66.06;101109.09;5387371;26;20004;-81
2024/04/08 02:40:29;;;;;;;0.00;0.00;;;;;;;15.90;66.12;101109.88;5378373;26;20007;-82
2024/04/08 02:42:55;;;;;;;0.10;0.10;;;;;;;15.92;66.82;101114.25;5374288;26;20019;-82
2024/04/08 02:45:21;;;;;;;0.10;0.10;;;;;;;15.93;66.67;101109.78;5367091;26;20082;-82
2024/04/08 02:47:48;;;;;;;0.10;0.10;;;;;;;15.93;66.76;101104.44;5380312;26;20000;-81
2024/04/08 02:50:14;;;;;;;0.00;0.00;;;;;;;15.93;66.99;101109.78;5378279;26;20006;-82
2024/04/08 02:52:40;;;;;;;0.00;0.00;;;;;;;15.93;66.37;101099.09;5376681;26;20008;-81
2024/04/08 02:55:06;;;;;;;0.00;0.00;;;;;;;15.94;66.12;101111.53;5381513;26;20024;-81
2024/04/08 02:57:32;;;;;;;0.00;0.00;;;;;;;15.93;66.74;101121.34;5376639;26;20012;-83
2024/04/08 02:59:58;;;;;;;0.10;0.10;;;;;;;15.93;66.19;101123.16;5377791;26;20364;-83
2024/04/08 03:02:25;;;;;;;0.10;0.10;;;;;;;15.92;66.87;101121.41;5380226;26;20022;-83
2024/04/08 03:04:52;;;;;;;0.00;0.00;;;;;;;15.89;66.58;101113.47;5375530;26;20011;-83
2024/04/08 03:07:18;;;;;;;0.10;0.10;;;;;;;15.83;67.24;101111.94;5377826;26;20012;-81
2024/04/08 03:09:50;;;;;;;0.00;0.00;;;;;;;15.82;67.33;101112.84;5373445;26;20336;-82
2024/04/08 03:12:16;;;;;;;0.10;0.10;;;;;;;15.74;67.34;101102.44;5374722;26;20019;-82
2024/04/08 03:14:42;;;;;;;0.10;0.10;;;;;;;15.71;67.46;101104.34;5373677;26;19997;-83
2024/04/08 03:17:09;;;;;;;0.00;0.00;;;;;;;15.65;67.23;101094.75;5378623;26;19997;-83
2024/04/08 03:19:35;;;;;;;0.00;0.00;;;;;;;15.62;67.83;101093.06;5377771;26;20463;-83
2024/04/08 03:22:01;;;;;;;0.10;0.10;;;;;;;15.58;67.52;101087.91;5368644;26;20440;-84
2024/04/08 03:24:28;;;;;;;0.10;0.10;;;;;;;15.52;67.69;101084.50;5384024;26;20000;-83
2024/04/08 03:26:54;;;;;;;0.10;0.10;;;;;;;15.51;68.28;101077.47;5387153;26;20339;-84
2024/04/08 03:29:20;;;;;;;0.10;0.10;;;;;;;15.47;67.54;101086.50;5376766;26;19996;-83
2024/04/08 03:31:47;;;;;;;0.10;0.10;;;;;;;15.45;67.56;101079.47;5382248;26;20470;-83
2024/04/08 03:34:13;;;;;;;0.00;0.00;;;;;;;15.46;67.92;101091.88;5372824;26;20008;-83
2024/04/08 03:36:39;;;;;;;0.10;0.10;;;;;;;15.45;68.15;101088.38;5377642;26;20001;-83
2024/04/08 03:39:06;;;;;;;0.00;0.00;;;;;;;15.44;68.66;101075.94;5381314;26;20008;-83
2024/04/08 03:41:32;;;;;;;0.57;0.57;;;;;;;15.45;68.33;101072.34;5380277;26;20000;-82
2024/04/08 03:43:58;;;;;;;0.05;0.05;;;;;;;15.43;68.60;101068.84;5387344;26;20001;-83
2024/04/08 03:46:24;;;;;;;0.00;0.00;;;;;;;15.43;68.28;101071.50;5381750;26;20006;-83
2024/04/08 03:48:50;;;;;;;0.47;0.47;;;;;;;15.40;68.44;101066.28;5385480;26;19996;-83
2024/04/08 03:51:18;;;;;;;0.00;0.00;;;;;;;15.38;68.30;101073.50;5379675;26;20010;-84
2024/04/08 03:53:46;;;;;;;0.10;0.10;;;;;;;15.34;68.76;101069.19;5377681;26;20000;-83
2024/04/08 03:56:12;;;;;;;0.00;0.00;;;;;;;15.33;68.63;101056.78;5379255;26;20007;-84
2024/04/08 03:58:40;;;;;;;1.17;1.00;;;;;;;15.32;68.41;101055.03;5383383;26;20015;-83
2024/04/08 04:01:07;;;;;;;0.00;0.00;;;;;;;15.29;68.98;101061.34;5380674;26;19996;-83
2024/04/08 04:03:35;;;;;;;0.10;0.10;;;;;;;15.29;68.63;101045.34;5374246;26;20650;-82
2024/04/08 04:06:01;;;;;;;0.00;0.00;;;;;;;15.25;68.55;101038.34;5370174;26;20005;-83
2024/04/08 04:08:28;;;;;;;0.10;0.10;;;;;;;15.22;69.03;101021.59;5378893;26;20479;-83
2024/04/08 04:10:55;;;;;;;0.73;0.73;;;;;;;15.17;68.77;101022.59;5374479;26;20006;-83
2024/04/08 04:13:22;;;;;;;0.10;0.10;;;;;;;15.14;68.80;101020.06;5381563;26;20000;-83
2024/04/08 04:15:48;;;;;;;0.10;0.10;;;;;;;15.08;69.27;101030.97;5371625;26;19997;-83
2024/04/08 04:18:14;;;;;;;0.20;0.20;;;;;;;15.04;69.72;101034.66;5374327;26;20348;-83
2024/04/08 04:20:44;;;;;;;0.00;0.00;;;;;;;15.03;69.32;101043.59;5385089;26;20004;-81
2024/04/08 04:23:11;;;;;;;0.00;0.00;;;;;;;14.98;69.30;101041.09;5374910;26;20500;-83
2024/04/08 04:25:37;;;;;;;0.00;0.00;;;;;;;14.96;69.65;101044.75;5382192;26;20431;-83
2024/04/08 04:28:04;;;;;;;0.10;0.10;;;;;;;14.96;69.60;101050.94;5383361;26;20000;-83
2024/04/08 04:30:30;;;;;;;0.10;0.10;;;;;;;14.94;69.85;101059.91;5384885;26;20074;-83
2024/04/08 04:32:57;;;;;;;0.10;0.10;;;;;;;14.93;69.52;101064.41;5380959;26;20008;-84
2024/04/08 04:35:24;;;;;;;0.10;0.10;;;;;;;14.94;69.75;101070.59;5380300;26;20009;-82
2024/04/08 04:37:51;;;;;;;0.10;0.10;;;;;;;14.94;69.07;101071.47;5385545;26;20073;-83
2024/04/08 04:40:17;;;;;;;0.10;0.10;;;;;;;14.95;68.83;101075.88;5380729;26;20004;-84
2024/04/08 04:42:45;;;;;;;0.10;0.10;;;;;;;14.97;69.38;101075.84;5377156;26;20336;-83
2024/04/08 04:45:11;;;;;;;0.00;0.00;;;;;;;14.99;67.95;101084.63;5384532;26;20012;-84
2024/04/08 04:47:38;;;;;;;0.00;0.00;;;;;;;15.01;69.82;101082.81;5379091;26;20044;-83
2024/04/08 04:50:04;;;;;;;0.00;0.00;;;;;;;15.05;69.74;101089.75;5381163;26;20088;-83
2024/04/08 04:52:31;;;;;;;0.10;0.10;;;;;;;15.09;70.15;101102.09;5383375;26;20007;-84
2024/04/08 04:54:57;;;;;;;0.00;0.00;;;;;;;15.12;69.72;101095.78;5387204;26;20012;-83
2024/04/08 04:57:24;;;;;;;0.00;0.00;;;;;;;15.18;69.65;101108.91;5385725;26;20008;-84
2024/04/08 04:59:50;;;;;;;0.00;0.00;;;;;;;15.22;70.07;101118.53;5379007;26;20010;-83
2024/04/08 05:02:16;;;;;;;0.10;0.10;;;;;;;15.23;69.47;101114.94;5394199;26;20322;-81
2024/04/08 05:04:45;;;;;;;0.10;0.10;;;;;;;15.24;69.99;101113.16;5390589;26;20009;-83
2024/04/08 05:07:11;;;;;;;0.10;0.10;;;;;;;15.26;69.67;101120.16;5390637;26;20460;-82
2024/04/08 05:09:38;;;;;;;0.10;0.10;;;;;;;15.28;69.33;101113.00;5384109;26;20008;-83
2024/04/08 05:12:04;;;;;;;0.00;0.00;;;;;;;15.31;69.31;101110.19;5385612;26;20008;-83
2024/04/08 05:14:30;;;;;;;0.00;0.00;;;;;;;15.34;69.03;101130.59;5374788;26;20000;-83
2024/04/08 05:16:57;;;;;;;0.10;0.10;;;;;;;15.37;69.32;101133.16;5378985;26;19997;-82
2024/04/08 05:19:24;;;;;;;0.10;0.10;;;;;;;15.38;70.27;101137.56;5375208;26;20320;-82
2024/04/08 05:21:50;;;;;;;0.20;0.20;;;;;;;15.42;69.40;101133.84;5379717;26;19992;-83
2024/04/08 05:24:16;;;;;;;2.33;1.17;;;;;;;15.45;70.03;101133.75;5381889;26;20346;-83
2024/04/08 05:26:42;;;;;;;0.10;0.10;;;;;;;15.46;70.03;101143.50;5382817;26;20000;-82
2024/04/08 05:29:09;;;;;;;0.85;0.57;;;;;;;15.48;69.93;101146.97;5381349;26;20050;-83
2024/04/08 05:31:35;;;;;;;0.30;0.30;;;;;;;15.55;69.59;101141.41;5377903;26;20015;-83
2024/04/08 05:34:01;;;;;;;0.30;0.30;;;;;;;15.54;69.86;101129.88;5381479;26;20010;-83
2024/04/08 05:36:27;;;;;;;0.10;0.10;;;;;;;15.55;70.36;101114.72;5385702;26;20400;-83
2024/04/08 05:38:53;;;;;;;0.20;0.20;;;;;;;15.59;70.07;101100.31;5385427;26;20467;-84
2024/04/08 05:41:19;;;;;;;0.10;0.10;;;;;;;15.62;69.77;101094.88;5381081;26;20003;-83
2024/04/08 05:43:46;;;;;;;0.40;0.40;;;;;;;15.67;69.88;101100.91;5382941;26;20000;-83
2024/04/08 05:46:12;;;;;;;0.10;0.10;;;;;;;15.73;69.56;101108.69;5375753;26;19995;-83
2024/04/08 05:48:38;;;;;;;0.00;0.00;;;;;;;15.79;69.98;101107.63;5368918;26;20418;-82
2024/04/08 05:51:06;;;;;;;0.10;0.10;;;;;;;15.85;70.15;101108.28;5377410;26;20451;-83
2024/04/08 05:53:32;;;;;;;0.10;0.10;;;;;;;15.92;69.70;101108.91;5380023;26;20035;-83
2024/04/08 05:55:58;;;;;;;0.10;0.10;;;;;;;15.98;69.70;101113.16;5379049;26;19996;-82
2024/04/08 05:58:24;;;;;;;0.10;0.10;;;;;;;16.03;69.64;101116.50;5377141;26;20050;-83
2024/04/08 06:00:51;;;;;;;0.00;0.00;;;;;;;16.09;69.31;101116.28;5378667;26;20472;-84
2024/04/08 06:03:17;;;;;;;0.00;0.00;;;;;;;16.12;68.88;101121.50;5372634;26;19997;-81
2024/04/08 06:05:44;;;;;;;0.00;0.00;;;;;;;16.13;68.75;101122.38;5374301;26;19999;-81
2024/04/08 06:08:13;;;;;;;0.32;0.32;;;;;;;16.16;68.53;101109.78;5373176;26;21483;-82
2024/04/08 06:10:44;;;;;;;0.00;0.00;;;;;;;16.17;68.87;101116.88;5375630;26;20462;-84
2024/04/08 06:13:11;;;;;;;0.37;0.37;;;;;;;16.24;67.80;101113.94;5371296;26;20008;-84
2024/04/08 06:15:37;;;;;;;0.10;0.10;;;;;;;16.21;68.31;101109.56;5366546;26;20561;-82
2024/04/08 06:18:03;;;;;;;0.00;0.00;;;;;;;16.19;68.63;101111.44;5370715;26;20475;-81
2024/04/08 06:20:29;;;;;;;0.00;0.00;;;;;;;16.21;68.13;101103.38;5387063;26;20347;-82
2024/04/08 06:22:55;;;;;;;0.05;0.05;;;;;;;16.21;68.15;101103.38;5389126;26;20006;-81
2024/04/08 06:25:21;;;;;;;0.30;0.30;;;;;;;16.23;68.16;101097.03;5375246;26;20011;-81
2024/04/08 06:27:48;;;;;;;0.00;0.00;;;;;;;16.17;68.34;101103.50;5364666;26;20007;-81
2024/04/08 06:30:14;;;;;;;0.10;0.10;;;;;;;16.19;68.47;101100.75;5359601;26;20001;-82
2024/04/08 06:32:41;;;;;;;0.15;0.15;;;;;;;16.23;68.15;101109.53;5371699;26;20466;-83
2024/04/08 06:35:07;;;;;;;0.22;0.22;;;;;;;16.24;67.89;101119.28;5368767;26;19996;-83
2024/04/08 06:37:33;;;;;;;0.10;0.10;;;;;;;16.17;68.09;101130.22;5369901;26;20468;-84
2024/04/08 06:39:59;;;;;;;0.00;0.00;;;;;;;16.20;67.67;101123.88;5368571;26;20015;-83
2024/04/08 06:42:25;;;;;;;0.60;0.60;;;;;;;16.18;67.76;101129.28;5376914;26;20011;-83
2024/04/08 06:44:52;;;;;;;0.00;0.00;;;;;;;16.19;67.56;101127.50;5372184;26;20039;-82
2024/04/08 06:47:19;;;;;;;0.10;0.10;;;;;;;16.21;67.33;101124.75;5367166;26;20042;-83
2024/04/08 06:49:47;;;;;;;0.00;0.00;;;;;;;16.20;67.57;101118.53;5362342;26;20083;-83
2024/04/08 06:52:13;;;;;;;0.10;0.10;;;;;;;16.23;68.06;101114.88;5380309;26;19997;-83
2024/04/08 06:54:40;;;;;;;0.08;0.08;;;;;;;16.26;67.82;101101.38;5376735;26;20016;-84
2024/04/08 06:57:06;;;;;;;0.00;0.00;;;;;;;16.31;67.88;101105.63;5380161;26;20015;-82
2024/04/08 06:59:32;;;;;;;0.00;0.00;;;;;;;16.41;68.09;101111.47;5370270;26;20489;-83
2024/04/08 07:01:58;;;;;;;0.05;0.05;;;;;;;16.46;68.10;101111.25;5374184;26;20008;-82
2024/04/08 07:04:24;;;;;;;0.20;0.20;;;;;;;16.50;67.88;101121.78;5371905;26;20011;-83
2024/04/08 07:06:51;;;;;;;0.55;0.52;;;;;;;16.52;67.84;101102.13;5376168;26;20000;-83
2024/04/08 07:09:17;;;;;;;0.05;0.05;;;;;;;16.60;67.62;101110.72;5378362;26;20018;-83
2024/04/08 07:11:43;;;;;;;0.10;0.10;;;;;;;16.63;67.38;101121.28;5380748;26;19995;-83
2024/04/08 07:14:09;;;;;;;0.10;0.10;;;;;;;16.66;67.06;101123.84;5367196;26;20095;-82
2024/04/08 07:16:35;;;;;;;0.10;0.10;;;;;;;16.67;66.72;101120.22;5374657;26;20470;-83
2024/04/08 07:19:01;;;;;;;0.10;0.10;;;;;;;16.71;66.65;101127.22;5367054;26;20354;-83
2024/04/08 07:21:27;;;;;;;0.10;0.10;;;;;;;16.76;66.53;101127.88;5378018;26;20021;-84
2024/04/08 07:23:54;;;;;;;0.00;0.00;;;;;;;16.82;66.61;101132.97;5371663;26;20007;-83
2024/04/08 07:26:20;;;;;;;0.10;0.10;;;;;;;16.88;66.65;101130.97;5373964;26;20004;-83
2024/04/08 07:28:46;;;;;;;1.27;1.20;;;;;;;16.94;66.17;101130.75;5370088;26;20001;-83
2024/04/08 07:31:12;;;;;;;0.00;0.00;;;;;;;16.99;66.01;101128.75;5359948;26;20459;-84
2024/04/08 07:33:38;;;;;;;0.00;0.00;;;;;;;17.07;66.07;101131.97;5377671;26;20008;-84
2024/04/08 07:36:04;;;;;;;0.45;0.45;;;;;;;17.11;65.79;101117.53;5376387;26;19996;-83
2024/04/08 07:38:31;;;;;;;0.10;0.10;;;;;;;17.19;65.71;101116.31;5376406;26;20420;-84
2024/04/08 07:40:58;;;;;;;0.10;0.10;;;;;;;17.26;65.56;101109.78;5399784;26;20046;-84
2024/04/08 07:43:24;;;;;;;0.10;0.10;;;;;;;17.29;65.19;101101.59;5373747;26;20073;-84
2024/04/08 07:45:50;;;;;;;0.10;0.10;;;;;;;17.31;64.74;101097.03;5377925;26;20050;-84
2024/04/08 07:48:19;;;;;;;0.00;0.00;;;;;;;17.37;64.45;101087.84;5381683;26;19996;-83
2024/04/08 07:50:45;;;;;;;0.10;0.10;;;;;;;17.44;64.53;101090.19;5383345;26;20000;-82
2024/04/08 07:53:12;;;;;;;0.03;0.03;;;;;;;17.49;64.41;101065.88;5386885;26;20000;-82
2024/04/08 07:55:38;;;;;;;0.10;0.10;;;;;;;17.57;64.27;101063.72;5390289;26;19996;-83
2024/04/08 07:58:05;;;;;;;2.05;0.57;;;;;;;17.64;64.14;101061.63;5392038;26;20020;-83
2024/04/08 08:00:31;;;;;;;0.10;0.10;;;;;;;17.69;64.20;101056.06;5394784;26;20004;-83
2024/04/08 08:02:59;;;;;;;0.10;0.10;;;;;;;17.78;64.20;101048.47;5387384;26;19993;-82
2024/04/08 08:05:26;;;;;;;0.30;0.30;;;;;;;17.87;63.64;101047.16;5383779;26;20000;-83
2024/04/08 08:07:52;;;;;;;0.00;0.00;;;;;;;17.93;63.33;101040.63;5378616;26;20000;-83
2024/04/08 08:10:19;;;;;;;0.40;0.40;;;;;;;18.00;63.39;101047.47;5375209;26;20000;-82
2024/04/08 08:12:45;;;;;;;0.10;0.10;;;;;;;18.04;63.13;101037.47;5369115;26;19996;-81
2024/04/08 08:15:14;;;;;;;0.00;0.00;;;;;;;18.09;62.24;101044.34;5370975;26;20043;-81
2024/04/08 08:17:40;;;;;;;0.05;0.05;;;;;;;18.16;62.33;101041.38;5376552;26;20033;-82
2024/04/08 08:20:07;;;;;;;0.10;0.10;;;;;;;18.22;62.28;101047.28;5370678;26;20001;-82
2024/04/08 08:22:33;;;;;;;0.10;0.10;;;;;;;18.32;62.30;101050.41;5378699;26;20008;-81
2024/04/08 08:24:59;;;;;;;0.20;0.20;;;;;;;18.36;62.07;101064.53;5383380;26;20050;-82
2024/04/08 08:27:25;;;;;;;0.75;0.75;;;;;;;18.45;61.99;101063.22;5378041;26;20001;-81
2024/04/08 08:29:53;;;;;;;0.10;0.10;;;;;;;18.53;61.92;101066.34;5392024;26;20004;-81
2024/04/08 08:32:20;;;;;;;0.20;0.20;;;;;;;18.64;62.15;101058.66;5395685;26;20011;-84
2024/04/08 08:34:46;;;;;;;0.10;0.10;;;;;;;18.70;61.13;101063.69;5397244;26;20043;-83
2024/04/08 08:37:12;;;;;;;0.10;0.10;;;;;;;18.82;61.98;101045.25;5380878;26;20000;-82
2024/04/08 08:39:38;;;;;;;0.25;0.25;;;;;;;18.92;61.26;101046.53;5393699;26;19997;-83
2024/04/08 08:42:07;;;;;;;0.25;0.25;;;;;;;19.01;60.28;101046.03;5387708;26;20008;-84
2024/04/08 08:44:34;;;;;;;0.10;0.10;;;;;;;19.07;59.92;101034.97;5385960;26;20050;-81
2024/04/08 08:47:01;;;;;;;0.63;0.57;;;;;;;19.05;58.76;101041.38;5403981;26;20018;-82
2024/04/08 08:49:29;;;;;;;0.03;0.03;;;;;;;19.01;58.32;101046.03;5384014;26;20016;-82
2024/04/08 08:51:56;;;;;;;0.15;0.15;;;;;;;18.98;59.53;101048.91;5396864;26;20073;-83
2024/04/08 08:54:22;;;;;;;0.10;0.10;;;;;;;18.94;58.76;101054.50;5392876;26;20000;-82
2024/04/08 08:56:48;;;;;;;0.13;0.13;;;;;;;18.92;59.82;101051.91;5394785;26;20015;-82
2024/04/08 08:59:16;;;;;;;0.10;0.10;;;;;;;18.94;60.19;101046.44;5392872;26;20008;-82
2024/04/08 09:01:42;;;;;;;0.10;0.10;;;;;;;18.94;59.39;101033.91;5386566;26;20015;-82
2024/04/08 09:04:14;;;;;;;0.08;0.08;;;;;;;18.96;59.16;101032.00;5376983;26;20001;-82
2024/04/08 09:06:58;;;;;;;0.05;0.05;;;;;;;18.95;59.29;101029.41;5391200;26;20070;-83
2024/04/08 09:09:24;;;;;;;0.10;0.10;;;;;;;18.90;58.94;101026.91;5384498;26;20025;-84
2024/04/08 09:11:52;;;;;;;0.05;0.05;;;;;;;18.92;58.68;101022.38;5376053;26;19997;-83
2024/04/08 09:14:18;;;;;;;0.10;0.10;;;;;;;19.04;58.78;101026.22;5389124;26;20004;-82
2024/04/08 09:16:48;;;;;;;0.00;0.00;;;;;;;19.13;57.68;101030.22;5383216;26;20008;-83
2024/04/08 09:19:15;;;;;;;0.10;0.10;;;;;;;19.15;57.80;101028.34;5378083;26;20004;-82
2024/04/08 09:21:41;;;;;;;0.20;0.20;;;;;;;19.26;57.76;101020.56;5376957;26;20067;-83
2024/04/08 09:24:08;;;;;;;0.30;0.30;;;;;;;19.40;56.89;101015.34;5384723;26;20000;-82
2024/04/08 09:26:35;;;;;;;0.10;0.10;;;;;;;19.56;57.30;101017.16;5386367;26;20019;-83
2024/04/08 09:29:02;;;;;;;0.10;0.10;;;;;;;19.74;57.69;101023.38;5390110;26;20063;-83
2024/04/08 09:31:29;;;;;;;0.08;0.08;;;;;;;19.82;56.20;101031.00;5388681;26;20587;-84
2024/04/08 09:33:56;;;;;;;0.10;0.10;;;;;;;19.89;56.14;101027.03;5384114;26;19996;-83
2024/04/08 09:36:24;;;;;;;0.00;0.00;;;;;;;19.94;56.44;101024.97;5380897;26;20004;-83
2024/04/08 09:38:52;;;;;;;0.05;0.05;;;;;;;20.01;56.71;101015.59;5377510;26;20008;-83
2024/04/08 09:41:18;;;;;;;0.30;0.30;;;;;;;20.10;56.69;101011.50;5367718;26;20004;-84
2024/04/08 09:43:45;;;;;;;0.10;0.10;;;;;;;20.19;55.82;101002.03;5367171;26;20012;-84
2024/04/08 09:46:14;;;;;;;0.57;0.57;;;;;;;20.40;56.05;100999.91;5373662;26;20066;-84
2024/04/08 09:48:41;;;;;;;0.00;0.00;;;;;;;20.59;55.17;100999.69;5374311;26;19996;-84
2024/04/08 09:51:09;;;;;;;0.10;0.10;;;;;;;20.73;54.86;100993.50;5385087;26;20000;-83
2024/04/08 09:53:35;;;;;;;0.20;0.20;;;;;;;20.89;54.71;100985.34;5386607;26;20209;-84
2024/04/08 09:56:11;;;;;;;0.00;0.00;;;;;;;21.13;54.52;100979.41;5372975;26;20000;-83
2024/04/08 09:58:40;;;;;;;0.10;0.10;;;;;;;21.30;53.09;100995.38;5377219;26;20010;-83
2024/04/08 10:01:11;;;;;;;0.08;0.08;;;;;;;21.38;52.36;100997.59;5382199;26;20406;-84
2024/04/08 10:03:45;;;;;;;0.20;0.20;;;;;;;21.47;52.97;101001.53;5387310;26;20011;-84
2024/04/08 10:06:11;;;;;;;0.10;0.10;;;;;;;21.48;52.59;100995.19;5373157;26;20077;-83
2024/04/08 10:08:39;;;;;;;0.10;0.10;;;;;;;21.49;52.22;100996.91;5371962;26;20047;-83
2024/04/08 10:11:06;;;;;;;0.08;0.08;;;;;;;21.46;52.55;100989.03;5378491;26;20047;-82
2024/04/08 10:13:32;;;;;;;0.08;0.08;;;;;;;21.45;52.37;100990.84;5373894;26;20019;-84
2024/04/08 10:16:16;;;;;;;3.63;0.95;;;;;;;21.49;51.01;100997.78;5374191;26;20349;-83
2024/04/08 10:18:57;;;;;;;0.10;0.10;;;;;;;21.52;51.89;100994.03;5377847;26;20359;-83
2024/04/08 10:21:26;;;;;;;0.20;0.20;;;;;;;21.46;51.17;100983.66;5372705;26;19997;-82
2024/04/08 10:23:54;;;;;;;0.40;0.40;;;;;;;21.53;51.43;100974.19;5364298;26;20339;-83
2024/04/08 10:26:24;;;;;;;0.00;0.00;;;;;;;21.66;51.01;100979.69;5364681;26;20012;-82
2024/04/08 10:28:51;;;;;;;0.10;0.10;;;;;;;21.65;49.86;100992.31;5358578;26;19997;-83
2024/04/08 10:31:20;;;;;;;3.25;0.85;;;;;;;21.70;49.94;100992.00;5377354;26;20001;-83
2024/04/08 10:33:47;;;;;;;0.03;0.03;;;;;;;21.70;49.61;100994.72;5376429;26;20350;-83
2024/04/08 10:36:13;;;;;;;0.10;0.10;;;;;;;21.85;49.75;100987.44;5368782;26;20007;-84
2024/04/08 10:38:39;;;;;;;0.10;0.10;;;;;;;21.94;49.46;100989.56;5362273;26;23131;-82
2024/04/08 10:41:07;;;;;;;0.25;0.25;;;;;;;22.00;48.95;101003.59;5383329;26;20007;-82
2024/04/08 10:43:35;;;;;;;0.00;0.00;;;;;;;21.91;48.37;101000.53;5386527;26;19997;-83
2024/04/08 10:46:03;;;;;;;0.00;0.00;;;;;;;21.94;49.71;100989.56;5383657;26;20192;-84
2024/04/08 10:48:31;;;;;;;0.00;0.00;;;;;;;21.95;49.40;100980.47;5385003;26;20142;-85
2024/04/08 10:50:57;;;;;;;0.10;0.10;;;;;;;22.03;49.37;100971.91;5381362;26;20642;-84
2024/04/08 10:53:25;;;;;;;0.00;0.00;;;;;;;22.01;48.01;100963.03;5383950;26;20019;-83
2024/04/08 10:55:51;;;;;;;0.10;0.10;;;;;;;22.09;48.88;100968.78;5373950;26;20010;-82
2024/04/08 10:58:18;;;;;;;0.10;0.10;;;;;;;22.12;47.78;100963.19;5370017;26;20325;-83
2024/04/08 11:00:45;;;;;;;0.10;0.10;;;;;;;22.27;49.10;100961.28;5380386;26;20004;-82
2024/04/08 11:03:13;;;;;;;0.32;0.28;;;;;;;22.23;47.52;100957.06;5379369;26;20000;-82
2024/04/08 11:05:40;;;;;;;0.05;0.05;;;;;;;22.36;48.28;100943.59;5340893;26;20008;-82
2024/04/08 11:08:08;;;;;;;0.10;0.10;;;;;;;22.39;47.24;100943.44;5372346;26;20004;-83
2024/04/08 11:10:35;;;;;;;0.10;0.10;;;;;;;22.43;48.54;100944.06;5379424;26;20000;-82
2024/04/08 11:13:01;;;;;;;0.00;0.00;;;;;;;22.43;48.29;100941.38;5377554;26;20487;-82
2024/04/08 11:15:29;;;;;;;0.28;0.28;;;;;;;22.52;48.54;100938.03;5381283;26;20000;-82
2024/04/08 11:17:57;;;;;;;0.10;0.10;;;;;;;22.54;47.96;100938.81;5382870;26;20039;-83
2024/04/08 11:20:26;;;;;;;0.00;0.00;;;;;;;22.58;48.37;100932.22;5377987;26;20000;-83
2024/04/08 11:22:52;;;;;;;0.52;0.52;;;;;;;22.48;47.33;100931.13;5371938;26;20001;-82